Time;durP1;ratioP1;P1;durP2;ratioP2;P2;SDS_P1;SDS_P2;PMS_P1;PMS_P2;Temp;Humidity;BMP_temperature;BMP_pressure;BME280_temperature;BME280_humidity;BME280_pressure;Samples;Min_cycle;Max_cycle;Signal;HPM_P1;HPM_P2
2022/03/02 00:01:22;;;;;;;6.20;5.67;;;25.40;47.30;;;;;;5053651;28;20441;-85
2022/03/02 00:03:49;;;;;;;5.30;4.90;;;25.40;47.30;;;;;;5053472;28;20449;-85
2022/03/02 00:06:16;;;;;;;7.23;6.63;;;25.40;47.20;;;;;;5053414;28;20433;-85
2022/03/02 00:08:43;;;;;;;6.20;5.63;;;25.40;47.20;;;;;;5053374;28;20438;-85
2022/03/02 00:11:11;;;;;;;6.13;5.70;;;25.40;47.20;;;;;;5053408;28;20438;-85
2022/03/02 00:13:39;;;;;;;5.00;4.60;;;25.40;47.20;;;;;;5053508;28;20480;-85
2022/03/02 00:16:06;;;;;;;5.33;4.90;;;25.40;47.20;;;;;;5053117;28;20453;-85
2022/03/02 00:18:33;;;;;;;5.77;5.37;;;25.40;47.20;;;;;;5053325;28;20436;-85
2022/03/02 00:21:00;;;;;;;6.00;5.60;;;25.40;47.30;;;;;;5053180;28;20489;-85
2022/03/02 00:23:26;;;;;;;5.90;5.40;;;25.40;47.20;;;;;;5053406;28;20799;-85
2022/03/02 00:25:53;;;;;;;6.03;5.43;;;25.40;47.20;;;;;;5053600;28;20446;-85
2022/03/02 00:28:21;;;;;;;6.57;6.00;;;25.40;47.20;;;;;;5054042;28;20492;-85
2022/03/02 00:30:48;;;;;;;6.23;5.73;;;25.30;47.10;;;;;;5057213;28;20449;-85
2022/03/02 00:33:15;;;;;;;5.50;5.00;;;25.30;47.20;;;;;;5057024;28;20441;-85
2022/03/02 00:35:42;;;;;;;5.70;5.20;;;25.50;47.20;;;;;;5057175;28;20437;-85
2022/03/02 00:38:10;;;;;;;5.63;5.23;;;25.30;47.10;;;;;;5056983;28;20442;-85
2022/03/02 00:40:38;;;;;;;5.63;5.20;;;25.30;47.10;;;;;;5057073;28;20442;-85
2022/03/02 00:43:05;;;;;;;5.53;5.03;;;25.40;47.20;;;;;;5057248;28;20441;-85
2022/03/02 00:45:33;;;;;;;5.80;5.30;;;25.30;47.10;;;;;;5056992;28;20908;-85
2022/03/02 00:48:00;;;;;;;5.53;5.13;;;25.50;47.20;;;;;;5057180;28;21013;-85
2022/03/02 00:50:28;;;;;;;5.10;4.70;;;25.30;47.10;;;;;;5056487;28;20465;-85
2022/03/02 00:52:55;;;;;;;5.33;4.93;;;25.30;47.10;;;;;;5057051;28;20449;-85
2022/03/02 00:55:22;;;;;;;6.10;5.60;;;25.30;47.10;;;;;;5056476;28;20469;-85
2022/03/02 00:57:49;;;;;;;5.83;5.33;;;25.30;47.10;;;;;;5056795;28;20437;-84
2022/03/02 01:00:16;;;;;;;4.97;4.57;;;25.30;47.10;;;;;;5056893;28;20445;-85
2022/03/02 01:02:46;;;;;;;5.17;4.73;;;25.30;47.10;;;;;;5056746;28;20437;-84
2022/03/02 01:05:13;;;;;;;5.17;4.77;;;25.30;47.10;;;;;;5056530;28;20449;-85
2022/03/02 01:07:40;;;;;;;4.90;4.50;;;25.20;47.00;;;;;;5056521;28;20486;-86
2022/03/02 01:10:08;;;;;;;5.77;5.27;;;25.30;47.10;;;;;;5056484;28;20456;-85
2022/03/02 01:12:35;;;;;;;5.60;5.20;;;25.30;47.10;;;;;;5056478;28;20446;-88
2022/03/02 01:15:02;;;;;;;5.77;5.30;;;25.30;47.10;;;;;;5056326;28;20445;-85
2022/03/02 01:17:28;;;;;;;4.87;4.50;;;25.30;47.10;;;;;;5056415;28;20793;-85
2022/03/02 01:19:57;;;;;;;4.80;4.40;;;25.30;47.10;;;;;;5056238;28;20449;-85
2022/03/02 01:22:24;;;;;;;5.00;4.60;;;25.20;47.00;;;;;;5056194;28;20465;-85
2022/03/02 01:24:50;;;;;;;4.90;4.50;;;25.20;47.00;;;;;;5056379;28;20924;-85
2022/03/02 01:27:17;;;;;;;6.00;5.53;;;25.30;47.00;;;;;;5055926;28;20473;-88
2022/03/02 01:29:44;;;;;;;5.30;4.90;;;25.30;47.10;;;;;;5056099;28;20437;-85
2022/03/02 01:32:11;;;;;;;5.40;5.00;;;25.20;47.00;;;;;;5056316;28;20446;-85
2022/03/02 01:34:39;;;;;;;5.20;4.80;;;25.30;47.10;;;;;;5056087;28;20453;-84
2022/03/02 01:37:07;;;;;;;5.23;4.83;;;25.20;47.00;;;;;;5056418;28;20785;-85
2022/03/02 01:39:34;;;;;;;5.57;5.07;;;25.20;47.00;;;;;;5055188;28;20939;-85
2022/03/02 01:42:00;;;;;;;5.03;4.73;;;25.20;47.00;;;;;;5056366;28;20438;-85
2022/03/02 01:44:27;;;;;;;4.70;4.30;;;25.20;47.00;;;;;;5055727;28;20468;-85
2022/03/02 01:46:54;;;;;;;5.03;4.63;;;25.20;47.00;;;;;;5055890;28;21002;-85
2022/03/02 01:49:21;;;;;;;4.50;4.10;;;25.20;47.00;;;;;;5056142;28;20449;-85
2022/03/02 01:51:48;;;;;;;5.13;4.73;;;25.20;47.60;;;;;;5055598;28;20465;-88
2022/03/02 01:54:16;;;;;;;5.03;4.63;;;25.20;47.00;;;;;;5055549;28;20446;-85
2022/03/02 01:56:43;;;;;;;5.07;4.67;;;25.30;47.00;;;;;;5055651;28;20461;-85
2022/03/02 01:59:11;;;;;;;5.80;5.20;;;25.20;47.00;;;;;;5055461;28;20430;-85
2022/03/02 02:01:37;;;;;;;5.17;4.77;;;25.20;47.00;;;;;;5055609;28;20499;-85
2022/03/02 02:04:06;;;;;;;5.20;4.80;;;25.20;47.00;;;;;;5055505;28;20457;-87
2022/03/02 02:06:33;;;;;;;4.40;4.10;;;25.20;47.00;;;;;;5055392;28;20445;-85
2022/03/02 02:09:02;;;;;;;4.70;4.30;;;25.20;47.00;;;;;;5055520;28;21012;-85
2022/03/02 02:11:31;;;;;;;4.80;4.40;;;25.20;47.00;;;;;;5055382;28;20467;-85
2022/03/02 02:13:58;;;;;;;4.67;4.27;;;25.20;47.00;;;;;;5055162;28;20491;-85
2022/03/02 02:16:25;;;;;;;4.30;3.90;;;25.20;47.00;;;;;;5055454;28;20507;-85
2022/03/02 02:18:54;;;;;;;4.80;4.40;;;25.20;47.00;;;;;;5055319;28;20457;-85
2022/03/02 02:21:23;;;;;;;4.93;4.53;;;25.20;47.00;;;;;;5054966;28;20466;-88
2022/03/02 02:23:50;;;;;;;5.47;5.07;;;25.20;47.00;;;;;;5055074;28;20929;-85
2022/03/02 02:26:19;;;;;;;5.77;5.27;;;25.20;47.00;;;;;;5055025;28;20442;-87
2022/03/02 02:28:46;;;;;;;4.83;4.43;;;25.20;47.00;;;;;;5054919;28;20980;-85
2022/03/02 02:31:13;;;;;;;4.47;4.17;;;25.10;46.90;;;;;;5055240;28;20544;-85
2022/03/02 02:33:40;;;;;;;4.23;3.93;;;25.20;47.00;;;;;;5055067;28;20445;-87
2022/03/02 02:36:06;;;;;;;4.53;4.23;;;25.20;47.00;;;;;;5054952;28;20449;-87
2022/03/02 02:38:35;;;;;;;5.40;4.90;;;25.10;46.90;;;;;;5055026;28;20939;-85
2022/03/02 02:41:02;;;;;;;4.60;4.30;;;25.10;46.90;;;;;;5055119;28;20441;-86
2022/03/02 02:43:28;;;;;;;4.63;4.33;;;25.10;46.90;;;;;;5054611;28;20437;-85
2022/03/02 02:45:55;;;;;;;5.50;5.10;;;25.10;46.90;;;;;;5054758;28;20433;-85
2022/03/02 02:48:22;;;;;;;4.80;4.40;;;25.20;47.00;;;;;;5054353;28;20493;-86
2022/03/02 02:50:49;;;;;;;5.10;4.63;;;25.20;47.00;;;;;;5054321;28;20466;-88
2022/03/02 02:53:16;;;;;;;4.30;4.00;;;25.20;46.90;;;;;;5054647;28;20442;-86
2022/03/02 02:55:47;;;;;;;4.50;4.13;;;25.10;46.80;;;;;;5054446;28;20501;-85
2022/03/02 02:58:15;;;;;;;4.97;4.57;;;25.10;46.90;;;;;;5054442;28;20441;-85
2022/03/02 03:00:46;;;;;;;4.70;4.40;;;25.20;46.90;;;;;;5054353;28;20441;-85
2022/03/02 03:03:13;;;;;;;4.27;3.97;;;25.10;46.90;;;;;;5054525;28;20438;-85
2022/03/02 03:05:40;;;;;;;4.73;4.43;;;25.10;46.90;;;;;;5054445;28;20464;-85
2022/03/02 03:08:09;;;;;;;4.67;4.23;;;25.10;46.80;;;;;;5054146;28;20486;-85
2022/03/02 03:10:36;;;;;;;4.50;4.20;;;25.10;46.90;;;;;;5054365;28;20925;-88
2022/03/02 03:13:05;;;;;;;4.00;3.70;;;25.10;46.90;;;;;;5053931;28;20449;-85
2022/03/02 03:15:32;;;;;;;4.60;4.30;;;25.10;46.90;;;;;;5054252;28;20441;-86
2022/03/02 03:17:59;;;;;;;4.20;3.90;;;25.10;46.90;;;;;;5054229;28;20544;-85
2022/03/02 03:20:27;;;;;;;4.10;3.80;;;25.10;46.90;;;;;;5053775;28;20462;-85
2022/03/02 03:22:56;;;;;;;4.20;3.90;;;25.10;46.80;;;;;;5054114;28;20445;-85
2022/03/02 03:25:23;;;;;;;4.17;3.87;;;25.10;46.80;;;;;;5054117;28;20438;-85
2022/03/02 03:27:51;;;;;;;4.17;3.90;;;25.10;46.80;;;;;;5053785;28;20477;-88
2022/03/02 03:30:22;;;;;;;4.67;4.27;;;25.00;46.80;;;;;;5054079;28;20438;-85
2022/03/02 03:32:49;;;;;;;4.97;4.57;;;25.00;46.80;;;;;;5054017;28;20475;-88
2022/03/02 03:35:17;;;;;;;4.30;4.00;;;25.00;46.80;;;;;;5053823;28;20438;-87
2022/03/02 03:37:45;;;;;;;5.10;4.70;;;25.00;47.40;;;;;;5053711;28;20465;-85
2022/03/02 03:40:15;;;;;;;4.23;3.93;;;25.00;46.80;;;;;;5053917;28;20442;-85
2022/03/02 03:42:42;;;;;;;4.27;3.97;;;25.00;46.80;;;;;;5053641;28;20453;-85
2022/03/02 03:45:10;;;;;;;5.07;4.67;;;25.00;46.80;;;;;;5050530;28;20467;-87
2022/03/02 03:47:38;;;;;;;4.30;4.00;;;25.00;46.80;;;;;;5053498;28;20477;-85
2022/03/02 03:50:07;;;;;;;4.80;4.40;;;25.10;46.80;;;;;;5053400;28;20442;-84
2022/03/02 03:52:34;;;;;;;4.50;4.10;;;25.10;46.70;;;;;;5053657;28;20488;-87
2022/03/02 03:55:01;;;;;;;4.67;4.27;;;25.20;46.70;;;;;;5053244;28;20474;-86
2022/03/02 03:57:28;;;;;;;3.97;3.77;;;25.30;46.70;;;;;;5049863;28;20933;-84
2022/03/02 03:59:55;;;;;;;4.03;3.73;;;25.20;46.70;;;;;;5033471;28;20454;-85
2022/03/02 04:02:21;;;;;;;4.37;4.03;;;25.20;46.60;;;;;;5043168;28;20579;-85
2022/03/02 04:04:49;;;;;;;4.47;4.17;;;25.20;46.60;;;;;;5052822;28;20446;-88
2022/03/02 04:07:16;;;;;;;4.20;3.90;;;25.20;46.50;;;;;;5048757;28;20449;-85
2022/03/02 04:09:43;;;;;;;4.53;4.23;;;25.20;46.50;;;;;;5033107;28;20529;-87
2022/03/02 04:12:10;;;;;;;4.67;4.33;;;25.20;46.50;;;;;;5033507;28;20816;-86
2022/03/02 04:14:37;;;;;;;3.97;3.70;;;25.20;46.50;;;;;;5033406;28;20465;-84
2022/03/02 04:17:04;;;;;;;3.80;3.50;;;25.20;46.50;;;;;;5033440;28;20439;-85
2022/03/02 04:19:31;;;;;;;4.67;4.27;;;25.20;46.50;;;;;;5033304;28;20450;-87
2022/03/02 04:21:59;;;;;;;4.13;3.83;;;25.20;46.50;;;;;;5033237;28;20470;-87
2022/03/02 04:24:26;;;;;;;4.77;4.40;;;25.30;46.50;;;;;;5047972;28;20438;-85
2022/03/02 04:26:53;;;;;;;4.50;4.20;;;25.20;46.50;;;;;;5052929;28;20449;-85
2022/03/02 04:29:19;;;;;;;4.77;4.37;;;25.20;46.50;;;;;;5052985;28;20481;-84
2022/03/02 04:31:46;;;;;;;4.50;4.20;;;25.20;46.50;;;;;;5049389;28;20446;-85
2022/03/02 04:34:14;;;;;;;4.97;4.57;;;25.20;46.50;;;;;;5038027;28;20445;-85
2022/03/02 04:36:41;;;;;;;3.83;3.53;;;25.20;46.40;;;;;;5033086;28;20453;-87
2022/03/02 04:39:09;;;;;;;3.70;3.50;;;25.20;46.40;;;;;;5033229;28;20793;-85
2022/03/02 04:41:35;;;;;;;3.90;3.60;;;25.20;46.30;;;;;;5033469;28;20442;-87
2022/03/02 04:44:02;;;;;;;3.67;3.40;;;25.20;46.30;;;;;;5032921;28;20447;-85
2022/03/02 04:46:29;;;;;;;4.53;4.13;;;25.30;46.30;;;;;;5033002;28;20799;-85
2022/03/02 04:48:56;;;;;;;3.80;3.60;;;25.30;46.30;;;;;;5032912;28;20482;-85
2022/03/02 04:51:23;;;;;;;3.93;3.63;;;25.30;46.30;;;;;;5032769;28;20463;-84
2022/03/02 04:53:50;;;;;;;3.80;3.50;;;25.30;46.20;;;;;;5038360;28;20965;-85
2022/03/02 04:56:19;;;;;;;4.80;4.40;;;25.40;46.20;;;;;;5043024;28;20560;-85
2022/03/02 04:58:46;;;;;;;3.97;3.73;;;25.40;46.20;;;;;;5040366;28;20920;-85
2022/03/02 05:01:13;;;;;;;4.87;4.47;;;25.40;46.20;;;;;;5049376;28;20453;-86
2022/03/02 05:03:40;;;;;;;4.27;3.97;;;25.40;46.20;;;;;;5040623;28;20466;-85
2022/03/02 05:06:06;;;;;;;4.60;4.20;;;25.40;46.10;;;;;;5040431;28;20437;-87
2022/03/02 05:08:33;;;;;;;4.40;4.10;;;25.40;46.10;;;;;;5049180;28;20489;-88
2022/03/02 05:11:00;;;;;;;4.00;3.70;;;25.40;46.10;;;;;;5045469;28;20790;-86
2022/03/02 05:13:28;;;;;;;4.53;4.23;;;25.40;46.00;;;;;;5052970;28;20457;-86
2022/03/02 05:15:55;;;;;;;4.20;3.90;;;25.50;46.00;;;;;;5055723;28;20443;-86
2022/03/02 05:18:22;;;;;;;4.10;3.80;;;25.50;46.00;;;;;;5056306;28;20449;-88
2022/03/02 05:20:48;;;;;;;3.73;3.43;;;25.50;46.00;;;;;;5055797;28;20473;-86
2022/03/02 05:23:15;;;;;;;4.60;4.20;;;25.50;46.00;;;;;;5056350;28;20448;-87
2022/03/02 05:25:42;;;;;;;4.00;3.80;;;25.50;45.90;;;;;;5056034;28;20437;-87
2022/03/02 05:28:09;;;;;;;3.93;3.63;;;25.50;45.90;;;;;;5055867;28;20481;-89
2022/03/02 05:30:37;;;;;;;3.83;3.53;;;25.50;45.90;;;;;;5056212;28;20453;-87
2022/03/02 05:33:04;;;;;;;4.07;3.77;;;25.50;46.50;;;;;;5056017;28;20438;-86
2022/03/02 05:35:31;;;;;;;3.50;3.30;;;25.50;45.80;;;;;;5056068;28;20533;-87
2022/03/02 05:37:58;;;;;;;4.10;3.77;;;25.50;45.80;;;;;;5055979;28;20445;-87
2022/03/02 05:40:24;;;;;;;3.97;3.67;;;25.60;45.80;;;;;;5055782;28;20434;-86
2022/03/02 05:42:52;;;;;;;4.03;3.80;;;25.60;45.80;;;;;;5056136;28;20487;-87
2022/03/02 05:45:18;;;;;;;3.53;3.33;;;25.60;45.80;;;;;;5055697;28;20437;-88
2022/03/02 05:47:47;;;;;;;3.50;3.23;;;25.60;45.80;;;;;;5055876;28;20438;-86
2022/03/02 05:50:13;;;;;;;3.53;3.23;;;25.60;45.80;;;;;;5056427;28;20457;-86
2022/03/02 05:52:40;;;;;;;3.80;3.50;;;25.60;45.80;;;;;;5055657;28;20438;-85
2022/03/02 05:55:08;;;;;;;4.40;4.00;;;25.60;45.70;;;;;;5055375;28;20469;-86
2022/03/02 05:57:36;;;;;;;4.10;3.80;;;25.60;45.70;;;;;;5055741;28;20572;-86
2022/03/02 06:00:04;;;;;;;3.90;3.60;;;25.60;45.70;;;;;;5055797;28;20441;-86
2022/03/02 06:02:31;;;;;;;3.90;3.60;;;25.60;45.70;;;;;;5055661;28;20438;-83
2022/03/02 06:04:59;;;;;;;3.87;3.57;;;25.60;45.80;;;;;;5055520;28;20500;-83
2022/03/02 06:07:26;;;;;;;4.07;3.77;;;25.60;45.80;;;;;;5055543;28;20446;-86
2022/03/02 06:09:53;;;;;;;4.20;3.87;;;25.60;45.80;;;;;;5055155;28;20485;-86
2022/03/02 06:12:21;;;;;;;4.00;3.70;;;25.60;45.80;;;;;;5055368;28;20434;-86
2022/03/02 06:14:49;;;;;;;3.37;3.07;;;25.60;45.80;;;;;;5055279;28;20437;-84
2022/03/02 06:17:16;;;;;;;3.80;3.53;;;25.60;45.80;;;;;;5055053;28;20444;-82
2022/03/02 06:19:43;;;;;;;4.20;3.90;;;25.60;45.90;;;;;;5055336;28;20441;-83
2022/03/02 06:22:11;;;;;;;3.20;3.00;;;25.50;46.00;;;;;;5055233;28;20469;-84
2022/03/02 06:24:39;;;;;;;4.53;3.43;;;25.50;46.00;;;;;;5055359;28;20434;-84
2022/03/02 06:27:06;;;;;;;4.07;3.77;;;25.40;46.00;;;;;;5054295;28;20955;-84
2022/03/02 06:29:32;;;;;;;4.63;4.23;;;25.40;46.20;;;;;;5054833;28;20485;-84
2022/03/02 06:31:59;;;;;;;4.00;3.70;;;25.50;46.20;;;;;;5054925;28;20797;-84
2022/03/02 06:34:26;;;;;;;3.43;3.13;;;25.60;46.20;;;;;;5054896;28;20564;-84
2022/03/02 06:36:53;;;;;;;4.23;3.93;;;25.60;46.20;;;;;;5054734;28;20445;-84
2022/03/02 06:39:22;;;;;;;4.00;3.60;;;25.60;46.20;;;;;;5055327;28;20443;-84
2022/03/02 06:42:03;;;;;;;4.13;3.83;;;25.70;46.20;;;;;;5054782;28;20434;-83
2022/03/02 06:44:34;;;;;;;4.07;3.67;;;25.70;46.30;;;;;;5054697;28;20446;-84
2022/03/02 06:47:04;;;;;;;4.80;3.80;;;25.70;46.30;;;;;;5054587;28;20444;-84
2022/03/02 06:49:45;;;;;;;4.17;3.93;;;25.70;46.30;;;;;;5054581;28;20485;-86
2022/03/02 06:52:12;;;;;;;3.47;3.17;;;25.80;46.30;;;;;;5054506;28;20445;-86
2022/03/02 06:54:44;;;;;;;3.80;3.50;;;25.70;46.20;;;;;;5054289;28;20805;-86
2022/03/02 06:57:13;;;;;;;3.83;3.47;;;25.80;46.30;;;;;;5054704;28;20442;-86
2022/03/02 06:59:41;;;;;;;4.90;4.30;;;25.80;46.30;;;;;;5055434;28;20442;-86
2022/03/02 07:02:10;;;;;;;4.10;3.70;;;25.80;46.20;;;;;;5054562;28;20788;-84
2022/03/02 07:04:40;;;;;;;4.37;4.07;;;25.80;46.80;;;;;;5054144;28;20449;-84
2022/03/02 07:07:08;;;;;;;4.97;3.77;;;25.80;46.00;;;;;;5054681;28;20820;-83
2022/03/02 07:09:36;;;;;;;4.37;3.97;;;25.70;45.90;;;;;;5054829;28;20488;-83
2022/03/02 07:12:06;;;;;;;4.57;4.00;;;25.80;46.00;;;;;;5054831;28;20449;-84
2022/03/02 07:14:35;;;;;;;3.77;3.47;;;25.80;45.90;;;;;;5055507;28;20452;-84
2022/03/02 07:17:04;;;;;;;4.57;4.23;;;25.90;45.90;;;;;;5054810;28;20449;-83
2022/03/02 07:19:32;;;;;;;3.93;3.70;;;25.90;45.90;;;;;;5054728;28;20438;-83
2022/03/02 07:22:04;;;;;;;4.80;4.40;;;25.90;45.80;;;;;;5054866;28;20458;-84
2022/03/02 07:24:37;;;;;;;4.30;3.60;;;26.00;45.90;;;;;;5054716;28;20442;-85
2022/03/02 07:27:06;;;;;;;5.70;3.83;;;26.00;45.90;;;;;;5054672;28;20491;-84
2022/03/02 07:29:37;;;;;;;34.97;8.67;;;26.00;45.80;;;;;;5054387;28;20508;-84
2022/03/02 07:32:04;;;;;;;9.23;4.43;;;26.00;45.40;;;;;;5054231;28;20444;-83
2022/03/02 07:34:32;;;;;;;10.50;4.70;;;25.90;45.80;;;;;;5054523;28;20446;-84
2022/03/02 07:37:00;;;;;;;12.63;4.80;;;26.00;46.10;;;;;;5055714;28;20434;-83
2022/03/02 07:39:28;;;;;;;13.40;4.87;;;26.00;46.90;;;;;;5054334;28;20778;-84
2022/03/02 07:41:55;;;;;;;17.93;8.07;;;26.00;47.80;;;;;;5054180;28;20474;-82
2022/03/02 07:44:23;;;;;;;19.70;7.70;;;25.90;46.80;;;;;;5054008;28;20453;-84
2022/03/02 07:46:50;;;;;;;28.70;9.13;;;25.90;47.40;;;;;;5053122;28;20438;-84
2022/03/02 07:49:17;;;;;;;24.23;8.40;;;25.90;48.70;;;;;;5054206;28;20496;-84
2022/03/02 07:51:46;;;;;;;23.47;9.23;;;26.00;49.00;;;;;;5054074;28;20844;-84
2022/03/02 07:54:16;;;;;;;34.10;9.10;;;25.90;49.10;;;;;;5053358;28;20816;-87
2022/03/02 07:56:45;;;;;;;25.30;9.00;;;26.00;49.60;;;;;;5053654;28;20835;-84
2022/03/02 07:59:12;;;;;;;16.03;8.70;;;25.90;50.40;;;;;;5053430;28;20560;-87
2022/03/02 08:01:41;;;;;;;20.73;8.40;;;26.00;49.60;;;;;;5038912;28;20449;-84
2022/03/02 08:04:09;;;;;;;17.20;8.33;;;26.10;49.50;;;;;;5032929;28;20450;-88
2022/03/02 08:06:38;;;;;;;18.23;9.53;;;26.20;49.20;;;;;;5032935;28;20447;-88
2022/03/02 08:09:06;;;;;;;20.07;8.53;;;26.20;49.90;;;;;;5033007;28;20490;-87
2022/03/02 08:11:35;;;;;;;23.73;9.23;;;26.40;49.80;;;;;;5032961;28;20443;-88
2022/03/02 08:14:01;;;;;;;23.10;8.43;;;26.40;49.70;;;;;;5032798;28;20953;-88
2022/03/02 08:16:28;;;;;;;20.67;8.23;;;26.40;49.50;;;;;;5033097;28;20443;-89
2022/03/02 08:19:02;;;;;;;20.90;8.03;;;26.40;49.40;;;;;;5032579;28;20454;-93
2022/03/02 08:21:31;;;;;;;19.20;7.97;;;26.40;49.30;;;;;;5033149;28;20462;-89
2022/03/02 08:24:02;;;;;;;24.30;8.20;;;26.40;48.90;;;;;;5034027;28;20438;-89
2022/03/02 08:26:32;;;;;;;22.07;7.70;;;26.40;48.90;;;;;;5034542;28;20439;-85
2022/03/02 08:29:03;;;;;;;23.43;8.13;;;26.50;48.80;;;;;;5033383;28;20481;-92
2022/03/02 08:31:31;;;;;;;14.40;6.70;;;26.70;48.80;;;;;;5033524;28;20431;-92
2022/03/02 08:34:01;;;;;;;26.23;6.70;;;26.60;48.40;;;;;;5033314;28;20439;-85
2022/03/02 08:36:33;;;;;;;14.83;6.33;;;26.60;48.60;;;;;;5033171;28;20434;-85
2022/03/02 08:39:01;;;;;;;23.03;7.23;;;26.60;47.70;;;;;;5032912;28;20858;-89
2022/03/02 08:41:28;;;;;;;17.43;6.40;;;26.80;48.20;;;;;;5031771;28;21017;-85
2022/03/02 08:43:56;;;;;;;19.57;6.83;;;26.90;48.30;;;;;;5030042;28;20443;-86
2022/03/02 08:46:23;;;;;;;15.30;7.40;;;27.00;48.10;;;;;;5030624;28;20458;-86
2022/03/02 08:48:50;;;;;;;19.47;6.77;;;27.20;48.10;;;;;;5030493;28;20950;-85
2022/03/02 08:51:20;;;;;;;24.20;7.60;;;27.40;47.80;;;;;;5034696;28;20474;-85
2022/03/02 08:53:50;;;;;;;18.03;7.07;;;27.90;47.40;;;;;;5034868;28;20446;-86
2022/03/02 08:56:17;;;;;;;26.23;6.13;;;28.50;46.70;;;;;;5034842;28;20474;-90
2022/03/02 08:58:45;;;;;;;12.90;5.97;;;29.10;46.30;;;;;;5036465;28;20517;-86
2022/03/02 09:01:13;;;;;;;23.63;6.90;;;29.50;45.70;;;;;;5036667;28;20450;-90
2022/03/02 09:03:46;;;;;;;16.20;6.03;;;29.90;45.20;;;;;;5036485;28;20853;-90
2022/03/02 09:06:13;;;;;;;16.87;6.47;;;30.30;44.90;;;;;;5036573;28;20952;-86
2022/03/02 09:08:41;;;;;;;13.40;6.10;;;30.60;44.50;;;;;;5036327;28;20447;-89
2022/03/02 09:11:10;;;;;;;12.20;6.83;;;31.10;44.20;;;;;;5036247;28;20487;-90
2022/03/02 09:13:37;;;;;;;17.53;6.10;;;31.50;43.70;;;;;;5036330;28;20471;-87
2022/03/02 09:16:05;;;;;;;10.53;4.83;;;31.90;43.30;;;;;;5036312;28;20443;-90
2022/03/02 09:18:31;;;;;;;18.23;6.03;;;32.30;42.90;;;;;;5036434;28;20454;-90
2022/03/02 09:21:02;;;;;;;17.20;7.37;;;32.70;42.60;;;;;;5036159;28;20469;-90
2022/03/02 09:23:31;;;;;;;15.57;5.73;;;33.10;42.30;;;;;;5036069;28;20449;-86
2022/03/02 09:26:04;;;;;;;11.73;6.40;;;33.30;42.00;;;;;;5036236;28;20450;-87
2022/03/02 09:28:34;;;;;;;10.03;5.20;;;33.60;41.70;;;;;;5035811;28;20441;-86
2022/03/02 09:31:03;;;;;;;14.77;5.53;;;33.90;41.40;;;;;;5035959;28;20838;-88
2022/03/02 09:33:31;;;;;;;8.27;5.37;;;34.00;41.30;;;;;;5035981;28;20447;-86
2022/03/02 09:36:02;;;;;;;13.43;5.63;;;34.10;41.10;;;;;;5035709;28;20841;-85
2022/03/02 09:38:30;;;;;;;10.47;5.37;;;33.90;41.10;;;;;;5035851;28;20439;-86
2022/03/02 09:41:06;;;;;;;9.47;5.30;;;33.60;41.40;;;;;;5035818;28;20507;-87
2022/03/02 09:43:34;;;;;;;10.97;5.43;;;33.10;41.70;;;;;;5035893;28;20937;-87
2022/03/02 09:46:05;;;;;;;11.13;5.10;;;32.70;42.10;;;;;;5035879;28;20462;-87
2022/03/02 09:48:34;;;;;;;12.10;5.03;;;32.40;42.40;;;;;;5035156;28;20452;-87
2022/03/02 09:51:02;;;;;;;11.50;4.87;;;32.30;42.40;;;;;;5035208;28;20495;-87
2022/03/02 09:53:30;;;;;;;8.97;4.80;;;32.20;42.40;;;;;;5035488;28;20639;-87
2022/03/02 09:56:03;;;;;;;8.00;4.87;;;32.40;42.50;;;;;;5035375;28;20474;-88
2022/03/02 09:58:30;;;;;;;9.10;4.93;;;32.30;42.50;;;;;;5035416;28;20438;-86
2022/03/02 10:00:58;;;;;;;11.23;5.03;;;32.20;42.50;;;;;;5034596;28;20439;-88
2022/03/02 10:03:27;;;;;;;14.63;4.87;;;32.20;42.60;;;;;;5035312;28;20505;-86
2022/03/02 10:06:01;;;;;;;9.90;4.77;;;32.10;42.60;;;;;;5035263;28;20463;-87
2022/03/02 10:08:33;;;;;;;7.40;5.30;;;31.80;43.20;;;;;;5035195;28;20945;-87
2022/03/02 10:11:06;;;;;;;8.87;4.40;;;31.50;43.30;;;;;;5035245;28;20494;-86
2022/03/02 10:13:33;;;;;;;10.10;4.37;;;31.10;43.60;;;;;;5035095;28;20455;-87
2022/03/02 10:16:04;;;;;;;9.50;4.97;;;30.80;44.10;;;;;;5035047;28;20450;-85
2022/03/02 10:18:35;;;;;;;8.33;4.07;;;30.50;44.40;;;;;;5035131;28;20481;-87
2022/03/02 10:21:03;;;;;;;8.73;4.70;;;30.30;44.60;;;;;;5034839;28;20880;-85
2022/03/02 10:23:36;;;;;;;9.37;4.50;;;30.10;44.90;;;;;;5034906;28;20435;-85
2022/03/02 10:26:10;;;;;;;7.77;4.43;;;30.00;45.10;;;;;;5034877;28;20435;-87
2022/03/02 10:28:45;;;;;;;6.60;4.07;;;29.80;45.30;;;;;;5034855;28;20888;-87
2022/03/02 10:31:34;;;;;;;7.13;4.50;;;29.80;45.50;;;;;;5034726;28;20481;-86
2022/03/02 10:34:07;;;;;;;6.57;5.00;;;29.60;45.60;;;;;;5034786;28;20941;-86
2022/03/02 10:36:42;;;;;;;7.00;4.23;;;29.50;45.80;;;;;;5034761;28;20446;-87
2022/03/02 10:39:16;;;;;;;9.53;4.70;;;29.50;45.90;;;;;;5034304;28;20941;-86
2022/03/02 10:41:45;;;;;;;12.43;5.90;;;29.40;45.90;;;;;;5034974;28;20438;-86
2022/03/02 10:44:21;;;;;;;12.60;5.80;;;29.40;39.90;;;;;;5034626;28;20438;-88
2022/03/02 10:46:55;;;;;;;7.70;5.83;;;29.20;41.90;;;;;;5034505;28;20514;-87
2022/03/02 10:49:23;;;;;;;6.13;5.50;;;29.00;40.10;;;;;;5034598;28;20450;-87
2022/03/02 10:51:50;;;;;;;6.43;4.80;;;28.80;40.50;;;;;;5034585;28;20438;-88
2022/03/02 10:54:20;;;;;;;8.20;4.60;;;28.60;41.40;;;;;;5034250;28;20453;-88
2022/03/02 10:56:52;;;;;;;6.90;5.77;;;28.50;41.90;;;;;;5034268;28;20869;-87
2022/03/02 10:59:23;;;;;;;5.50;5.00;;;28.20;41.20;;;;;;5034138;28;20446;-87
2022/03/02 11:01:49;;;;;;;7.10;5.57;;;28.10;40.30;;;;;;5032278;28;20483;-85
2022/03/02 11:04:19;;;;;;;8.30;5.57;;;28.10;41.00;;;;;;5031698;28;20447;-87
2022/03/02 11:06:46;;;;;;;7.73;5.30;;;28.10;40.30;;;;;;5030496;28;21053;-87
2022/03/02 11:09:17;;;;;;;7.43;6.30;;;28.00;40.70;;;;;;5030644;28;20447;-87
2022/03/02 11:11:44;;;;;;;6.30;5.20;;;27.90;39.60;;;;;;5030843;28;20492;-87
2022/03/02 11:14:12;;;;;;;6.73;5.10;;;27.80;39.70;;;;;;5031693;28;20450;-87
2022/03/02 11:16:39;;;;;;;7.37;6.60;;;27.70;39.50;;;;;;5032218;28;20501;-87
2022/03/02 11:19:14;;;;;;;6.10;5.50;;;27.70;39.20;;;;;;5032168;28;20443;-87
2022/03/02 11:21:42;;;;;;;8.03;6.80;;;27.70;39.50;;;;;;5032147;28;20453;-87
2022/03/02 11:24:14;;;;;;;8.17;6.33;;;27.70;37.00;;;;;;5033354;28;20439;-87
2022/03/02 11:26:42;;;;;;;8.13;6.40;;;27.60;39.20;;;;;;5033663;28;20450;-87
2022/03/02 11:29:12;;;;;;;7.17;6.50;;;27.60;38.10;;;;;;5033537;28;20433;-87
2022/03/02 11:31:42;;;;;;;6.23;5.63;;;27.60;36.00;;;;;;5033562;28;20554;-87
2022/03/02 11:34:10;;;;;;;5.70;5.20;;;27.50;38.10;;;;;;5033607;28;20930;-87
2022/03/02 11:36:38;;;;;;;6.40;5.80;;;27.50;38.80;;;;;;5033511;28;20993;-88
2022/03/02 11:39:08;;;;;;;6.03;5.53;;;27.40;38.60;;;;;;5033509;28;20529;-87
2022/03/02 11:41:37;;;;;;;5.80;5.30;;;27.40;38.50;;;;;;5033520;28;20945;-85
2022/03/02 11:44:05;;;;;;;6.50;5.90;;;27.40;38.20;;;;;;5032951;28;20443;-87
2022/03/02 11:46:33;;;;;;;5.57;5.07;;;27.40;35.30;;;;;;5032385;28;20496;-87
2022/03/02 11:49:04;;;;;;;6.33;5.50;;;27.40;37.10;;;;;;5032379;28;20446;-86
2022/03/02 11:51:31;;;;;;;5.57;5.07;;;27.50;38.00;;;;;;5032847;28;20572;-87
2022/03/02 11:54:00;;;;;;;6.57;6.00;;;27.30;39.10;;;;;;5032692;28;20442;-87
2022/03/02 11:56:29;;;;;;;6.27;5.77;;;27.30;38.00;;;;;;5032449;28;20474;-87
2022/03/02 11:59:06;;;;;;;9.17;6.40;;;27.40;37.90;;;;;;5032870;28;20435;-87
2022/03/02 12:01:43;;;;;;;7.30;6.60;;;27.30;38.20;;;;;;5033234;28;20949;-87
2022/03/02 12:04:14;;;;;;;19.43;14.43;;;27.30;38.00;;;;;;5031442;28;20472;-87
2022/03/02 12:06:44;;;;;;;16.83;12.30;;;27.40;40.40;;;;;;5032891;28;20442;-86
2022/03/02 12:09:23;;;;;;;11.93;10.57;;;27.40;39.90;;;;;;5032541;28;20442;-86
2022/03/02 12:11:50;;;;;;;13.70;10.20;;;27.20;40.00;;;;;;5032541;28;20985;-87
2022/03/02 12:14:17;;;;;;;14.50;12.10;;;27.20;39.30;;;;;;5033069;28;20435;-86
2022/03/02 12:16:47;;;;;;;13.00;10.20;;;27.10;39.70;;;;;;5033062;28;20446;-87
2022/03/02 12:19:24;;;;;;;11.30;9.37;;;27.00;39.40;;;;;;5033056;28;20441;-87
2022/03/02 12:21:53;;;;;;;9.20;8.17;;;27.10;38.20;;;;;;5033023;28;20441;-86
2022/03/02 12:24:27;;;;;;;11.40;10.20;;;27.10;37.90;;;;;;5033876;28;20525;-87
2022/03/02 12:27:01;;;;;;;8.60;7.70;;;27.20;38.20;;;;;;5036005;28;20516;-86
2022/03/02 12:29:28;;;;;;;8.50;7.60;;;27.20;38.20;;;;;;5034714;28;20453;-88
2022/03/02 12:32:06;;;;;;;13.50;7.60;;;27.30;37.80;;;;;;5036640;28;20518;-87
2022/03/02 12:34:35;;;;;;;9.53;8.63;;;27.10;39.40;;;;;;5037048;28;20797;-87
2022/03/02 12:37:02;;;;;;;7.40;6.70;;;27.10;39.60;;;;;;5037175;28;20863;-86
2022/03/02 12:39:29;;;;;;;8.77;7.47;;;27.20;39.50;;;;;;5037042;28;20442;-89
2022/03/02 12:41:57;;;;;;;8.57;7.77;;;27.20;39.90;;;;;;5036855;28;20453;-87
2022/03/02 12:44:24;;;;;;;8.60;7.80;;;27.20;40.00;;;;;;5036703;28;20937;-85
2022/03/02 12:46:54;;;;;;;8.13;7.20;;;27.30;40.00;;;;;;5037059;28;20450;-89
2022/03/02 12:49:26;;;;;;;8.47;7.77;;;27.40;40.70;;;;;;5036653;28;20462;-85
2022/03/02 12:51:55;;;;;;;7.30;6.70;;;27.40;41.00;;;;;;5036285;28;20508;-85